Time;durP1;ratioP1;P1;durP2;ratioP2;P2;SDS_P1;SDS_P2;PMS_P1;PMS_P2;Temp;Humidity;BMP_temperature;BMP_pressure;BME280_temperature;BME280_humidity;BME280_pressure;Samples;Min_cycle;Max_cycle;Signal;HPM_P1;HPM_P2
2023/05/29 00:01:08;;;;;;;;;;;;;;;;;;5112629;28;19922;-60
2023/05/29 00:03:34;;;;;;;;;;;;;;;;;;5094187;28;20018;-61
2023/05/29 00:06:00;;;;;;;;;;;;;;;;;;5112465;28;19963;-60
2023/05/29 00:08:26;;;;;;;;;;;;;;;;;;5113001;28;20292;-60
2023/05/29 00:10:51;;;;;;;;;;;;;;;;;;5111777;28;19924;-60
2023/05/29 00:13:16;;;;;;;;;;;;;;;;;;5092399;28;19920;-61
2023/05/29 00:15:42;;;;;;;;;;;;;;;;;;5092171;28;20381;-61
2023/05/29 00:18:07;;;;;;;;;;;;;;;;;;5092183;28;20399;-61
2023/05/29 00:20:34;;;;;;;;;;;;;;;;;;5091591;28;19916;-60
2023/05/29 00:22:59;;;;;;;;;;;;;;;;;;5101576;28;20022;-60
2023/05/29 00:25:24;;;;;;;;;;;;;;;;;;5111539;28;20435;-61
2023/05/29 00:27:50;;;;;;;;;;;;;;;;;;5097705;28;19931;-60
2023/05/29 00:30:15;;;;;;;;;;;;;;;;;;5091127;28;20309;-60
2023/05/29 00:32:40;;;;;;;;;;;;;;;;;;5073700;28;19920;-60
2023/05/29 00:35:06;;;;;;;;;;;;;;;;;;5073699;28;19992;-60
2023/05/29 00:37:32;;;;;;;;;;;;;;;;;;5091635;28;19974;-60
2023/05/29 00:39:57;;;;;;;;;;;;;;;;;;5057582;28;20296;-61
2023/05/29 00:42:23;;;;;;;;;;;;;;;;;;5092673;28;19915;-60
2023/05/29 00:44:48;;;;;;;;;;;;;;;;;;5087023;28;19916;-61
2023/05/29 00:47:13;;;;;;;;;;;;;;;;;;5074694;28;19915;-61
2023/05/29 00:49:38;;;;;;;;;;;;;;;;;;5073729;28;20480;-61
2023/05/29 00:52:05;;;;;;;;;;;;;;;;;;5091763;28;19963;-60
2023/05/29 00:54:30;;;;;;;;;;;;;;;;;;5073473;28;20301;-61
2023/05/29 00:56:55;;;;;;;;;;;;;;;;;;5088036;28;19916;-61
2023/05/29 00:59:22;;;;;;;;;;;;;;;;;;5093515;28;19946;-60
2023/05/29 01:01:47;;;;;;;;;;;;;;;;;;5111717;28;19969;-60
2023/05/29 01:04:12;;;;;;;;;;;;;;;;;;5093676;28;20343;-60
2023/05/29 01:06:38;;;;;;;;;;;;;;;;;;5111768;28;19916;-61
2023/05/29 01:09:03;;;;;;;;;;;;;;;;;;5112255;28;20040;-61
2023/05/29 01:11:29;;;;;;;;;;;;;;;;;;5093614;28;19985;-61
2023/05/29 01:13:54;;;;;;;;;;;;;;;;;;5112108;28;19916;-60
2023/05/29 01:16:19;;;;;;;;;;;;;;;;;;5111691;28;19923;-60
2023/05/29 01:18:47;;;;;;;;;;;;;;;;;;5076178;28;19931;-59
2023/05/29 01:21:12;;;;;;;;;;;;;;;;;;5092900;28;19916;-61
2023/05/29 01:23:37;;;;;;;;;;;;;;;;;;5078518;28;20470;-60
2023/05/29 01:26:03;;;;;;;;;;;;;;;;;;5076777;28;20408;-61
2023/05/29 01:34:33;;;;;;;;;;;;;;;;;;5095465;28;20019;-61
2023/05/29 01:36:59;;;;;;;;;;;;;;;;;;5094872;28;20030;-60
2023/05/29 01:39:24;;;;;;;;;;;;;;;;;;5076565;28;19966;-60
2023/05/29 01:41:50;;;;;;;;;;;;;;;;;;5076808;28;20381;-60
2023/05/29 01:44:16;;;;;;;;;;;;;;;;;;5103385;28;19938;-61
2023/05/29 01:46:41;;;;;;;;;;;;;;;;;;5080003;28;19916;-62
2023/05/29 01:49:07;;;;;;;;;;;;;;;;;;5084995;28;19920;-59
2023/05/29 01:51:33;;;;;;;;;;;;;;;;;;5096915;28;19916;-61
2023/05/29 01:53:59;;;;;;;;;;;;;;;;;;5114532;28;20304;-60
2023/05/29 01:56:26;;;;;;;;;;;;;;;;;;5114859;28;19916;-61
2023/05/29 01:58:52;;;;;;;;;;;;;;;;;;5082799;28;20308;-61
2023/05/29 02:01:17;;;;;;;;;;;;;;;;;;5076223;28;19923;-61
2023/05/29 02:03:43;;;;;;;;;;;;;;;;;;5093640;28;19919;-61
2023/05/29 02:06:08;;;;;;;;;;;;;;;;;;5096276;28;19912;-61
2023/05/29 02:08:34;;;;;;;;;;;;;;;;;;5091506;28;19927;-61
2023/05/29 02:10:59;;;;;;;;;;;;;;;;;;5081560;28;19920;-61
2023/05/29 02:13:24;;;;;;;;;;;;;;;;;;5095677;28;20019;-60
2023/05/29 02:15:50;;;;;;;;;;;;;;;;;;5096422;28;19920;-60
2023/05/29 02:18:17;;;;;;;;;;;;;;;;;;5096393;28;19920;-60
2023/05/29 02:20:43;;;;;;;;;;;;;;;;;;5114231;28;19912;-60
2023/05/29 02:23:09;;;;;;;;;;;;;;;;;;5094108;28;20346;-60
2023/05/29 02:25:35;;;;;;;;;;;;;;;;;;5113684;28;19916;-60
2023/05/29 02:28:00;;;;;;;;;;;;;;;;;;5085635;28;19920;-60
2023/05/29 02:30:25;;;;;;;;;;;;;;;;;;5059025;28;19970;-61
2023/05/29 02:32:51;;;;;;;;;;;;;;;;;;5094124;28;19973;-60
2023/05/29 02:35:17;;;;;;;;;;;;;;;;;;5073652;28;19916;-60
2023/05/29 02:37:43;;;;;;;;;;;;;;;;;;5093535;28;20411;-61
2023/05/29 02:40:08;;;;;;;;;;;;;;;;;;5055413;28;19928;-60
2023/05/29 02:42:36;;;;;;;;;;;;;;;;;;5072220;28;19923;-59
2023/05/29 02:45:03;;;;;;;;;;;;;;;;;;5055798;28;19923;-62
2023/05/29 02:47:29;;;;;;;;;;;;;;;;;;5073414;28;19916;-60
2023/05/29 02:49:56;;;;;;;;;;;;;;;;;;5072002;28;20423;-61
2023/05/29 02:52:23;;;;;;;;;;;;;;;;;;5073556;28;19923;-60
2023/05/29 02:54:48;;;;;;;;;;;;;;;;;;5071991;28;19917;-61
2023/05/29 02:57:13;;;;;;;;;;;;;;;;;;5088784;28;20312;-61
2023/05/29 02:59:39;;;;;;;;;;;;;;;;;;5092439;28;19924;-61
2023/05/29 03:02:04;;;;;;;;;;;;;;;;;;5092156;28;20341;-61
2023/05/29 03:04:29;;;;;;;;;;;;;;;;;;5093776;28;20010;-61
2023/05/29 03:06:55;;;;;;;;;;;;;;;;;;5092028;28;20285;-61
2023/05/29 03:09:20;;;;;;;;;;;;;;;;;;5091711;28;19976;-61
2023/05/29 03:11:47;;;;;;;;;;;;;;;;;;5091868;28;20290;-60
2023/05/29 03:14:12;;;;;;;;;;;;;;;;;;5091920;28;19923;-60
2023/05/29 03:16:38;;;;;;;;;;;;;;;;;;5092115;28;19916;-60
2023/05/29 03:19:04;;;;;;;;;;;;;;;;;;5091862;28;20328;-61
2023/05/29 03:21:31;;;;;;;;;;;;;;;;;;5092983;28;19920;-61
2023/05/29 03:23:56;;;;;;;;;;;;;;;;;;5093265;28;19927;-61
2023/05/29 03:26:21;;;;;;;;;;;;;;;;;;5091637;28;19916;-61
2023/05/29 03:28:47;;;;;;;;;;;;;;;;;;5091635;28;19923;-60
2023/05/29 03:31:13;;;;;;;;;;;;;;;;;;5092941;28;19924;-60
2023/05/29 03:33:38;;;;;;;;;;;;;;;;;;5091596;28;20019;-61
2023/05/29 03:36:36;;;;;;;;;;;;;;;;;;5068719;28;20010;-62
2023/05/29 03:39:02;;;;;;;;;;;;;;;;;;5091466;28;19970;-62
2023/05/29 03:41:27;;;;;;;;;;;;;;;;;;5111656;28;20308;-60
2023/05/29 03:43:53;;;;;;;;;;;;;;;;;;5094697;28;20292;-60
2023/05/29 03:46:20;;;;;;;;;;;;;;;;;;5094006;28;19916;-62
2023/05/29 03:48:45;;;;;;;;;;;;;;;;;;5094210;28;20380;-60
2023/05/29 03:51:10;;;;;;;;;;;;;;;;;;5094215;28;19956;-59
2023/05/29 03:53:36;;;;;;;;;;;;;;;;;;5094780;28;20436;-61
2023/05/29 03:56:01;;;;;;;;;;;;;;;;;;5105177;28;19945;-62
2023/05/29 03:58:27;;;;;;;;;;;;;;;;;;5074212;28;19920;-60
2023/05/29 04:00:52;;;;;;;;;;;;;;;;;;5084065;28;20260;-61
2023/05/29 04:03:19;;;;;;;;;;;;;;;;;;5077621;28;19944;-60
2023/05/29 04:05:45;;;;;;;;;;;;;;;;;;5078171;28;20077;-61
2023/05/29 04:08:13;;;;;;;;;;;;;;;;;;5073908;28;20402;-60
2023/05/29 04:10:39;;;;;;;;;;;;;;;;;;5073585;28;19959;-60
2023/05/29 04:13:04;;;;;;;;;;;;;;;;;;5073761;28;19970;-61
2023/05/29 04:15:30;;;;;;;;;;;;;;;;;;5073977;28;19923;-61
2023/05/29 04:17:55;;;;;;;;;;;;;;;;;;5073790;28;19974;-59
2023/05/29 04:20:21;;;;;;;;;;;;;;;;;;5073102;28;19920;-61
2023/05/29 04:22:46;;;;;;;;;;;;;;;;;;5080573;28;19920;-61
2023/05/29 04:25:12;;;;;;;;;;;;;;;;;;5085216;28;19960;-62
2023/05/29 04:27:38;;;;;;;;;;;;;;;;;;5111386;28;19927;-61
2023/05/29 04:30:05;;;;;;;;;;;;;;;;;;5081930;28;19924;-61
2023/05/29 04:32:33;;;;;;;;;;;;;;;;;;5073233;28;20391;-61
2023/05/29 04:35:02;;;;;;;;;;;;;;;;;;5084435;28;19947;-61
2023/05/29 04:37:29;;;;;;;;;;;;;;;;;;5093646;28;19959;-63
2023/05/29 04:39:56;;;;;;;;;;;;;;;;;;5111699;28;19923;-61
2023/05/29 04:42:24;;;;;;;;;;;;;;;;;;5111846;28;19919;-62
2023/05/29 04:44:50;;;;;;;;;;;;;;;;;;5076681;28;19989;-61
2023/05/29 04:47:15;;;;;;;;;;;;;;;;;;5093420;28;19916;-60
2023/05/29 04:49:41;;;;;;;;;;;;;;;;;;5064805;28;20293;-62
2023/05/29 04:52:06;;;;;;;;;;;;;;;;;;5081167;28;19976;-61
2023/05/29 04:54:33;;;;;;;;;;;;;;;;;;5067390;28;19920;-60
2023/05/29 04:56:59;;;;;;;;;;;;;;;;;;5085163;28;19916;-61
2023/05/29 04:59:29;;;;;;;;;;;;;;;;;;5092405;28;20379;-59
2023/05/29 05:01:54;;;;;;;;;;;;;;;;;;5092993;28;19959;-58
2023/05/29 05:04:20;;;;;;;;;;;;;;;;;;5094987;28;19963;-61
2023/05/29 05:06:45;;;;;;;;;;;;;;;;;;5056726;28;19984;-60
2023/05/29 05:09:12;;;;;;;;;;;;;;;;;;5055304;28;20282;-62
2023/05/29 05:11:38;;;;;;;;;;;;;;;;;;5087378;28;19916;-60
2023/05/29 05:14:05;;;;;;;;;;;;;;;;;;5093843;28;19916;-60
2023/05/29 05:16:31;;;;;;;;;;;;;;;;;;5074093;28;20018;-60
2023/05/29 05:18:56;;;;;;;;;;;;;;;;;;5073702;28;20361;-60
2023/05/29 05:21:22;;;;;;;;;;;;;;;;;;5073758;28;19916;-61
2023/05/29 05:23:47;;;;;;;;;;;;;;;;;;5092397;28;20014;-60
2023/05/29 05:26:13;;;;;;;;;;;;;;;;;;5074605;28;19916;-61
2023/05/29 05:28:38;;;;;;;;;;;;;;;;;;5077773;28;20406;-61
2023/05/29 05:31:04;;;;;;;;;;;;;;;;;;5094142;28;20354;-60
2023/05/29 05:33:31;;;;;;;;;;;;;;;;;;5093315;28;19927;-60
2023/05/29 05:35:56;;;;;;;;;;;;;;;;;;5095431;28;19915;-62
2023/05/29 05:38:21;;;;;;;;;;;;;;;;;;5093418;28;19915;-59
2023/05/29 05:40:47;;;;;;;;;;;;;;;;;;5093335;28;19924;-61
2023/05/29 05:43:19;;;;;;;;;;;;;;;;;;5094805;28;19920;-64
2023/05/29 05:46:11;;;;;;;;;;;;;;;;;;5096518;28;19927;-62
2023/05/29 05:48:36;;;;;;;;;;;;;;;;;;5086631;28;19920;-61
2023/05/29 05:51:02;;;;;;;;;;;;;;;;;;5072707;28;19927;-61
2023/05/29 05:53:27;;;;;;;;;;;;;;;;;;5054313;28;20339;-61
2023/05/29 05:55:53;;;;;;;;;;;;;;;;;;5079406;28;20284;-62
2023/05/29 05:58:19;;;;;;;;;;;;;;;;;;5093678;28;20020;-61
2023/05/29 06:00:44;;;;;;;;;;;;;;;;;;5093942;28;20388;-61
2023/05/29 06:03:09;;;;;;;;;;;;;;;;;;5096763;28;19943;-61
2023/05/29 06:05:52;;;;;;;;;;;;;;;;;;5095951;28;20016;-60
2023/05/29 06:08:17;;;;;;;;;;;;;;;;;;5095825;28;19920;-61
2023/05/29 06:10:43;;;;;;;;;;;;;;;;;;5114073;28;19920;-61
2023/05/29 06:13:09;;;;;;;;;;;;;;;;;;5096123;28;20299;-62
2023/05/29 06:15:43;;;;;;;;;;;;;;;;;;5094087;28;20312;-61
2023/05/29 06:18:08;;;;;;;;;;;;;;;;;;5092702;28;20428;-60
2023/05/29 06:20:33;;;;;;;;;;;;;;;;;;5088795;28;20010;-60
2023/05/29 06:22:59;;;;;;;;;;;;;;;;;;5093658;28;19934;-62
2023/05/29 06:25:32;;;;;;;;;;;;;;;;;;5113090;28;19915;-60
2023/05/29 06:27:58;;;;;;;;;;;;;;;;;;5095335;28;20170;-60
2023/05/29 06:30:24;;;;;;;;;;;;;;;;;;5094324;28;20334;-61
2023/05/29 06:32:49;;;;;;;;;;;;;;;;;;5095252;28;19920;-62
2023/05/29 06:35:14;;;;;;;;;;;;;;;;;;5095234;28;19911;-62
2023/05/29 06:37:40;;;;;;;;;;;;;;;;;;5077327;28;20384;-63
2023/05/29 06:40:06;;;;;;;;;;;;;;;;;;5093614;28;19949;-62
2023/05/29 06:42:31;;;;;;;;;;;;;;;;;;5094022;28;20384;-61
2023/05/29 06:44:58;;;;;;;;;;;;;;;;;;5112576;28;19915;-61
2023/05/29 06:47:23;;;;;;;;;;;;;;;;;;5095101;28;19923;-62
2023/05/29 06:49:49;;;;;;;;;;;;;;;;;;5077151;28;20026;-60
2023/05/29 06:52:14;;;;;;;;;;;;;;;;;;5095054;28;19916;-61
2023/05/29 06:54:58;;;;;;;;;;;;;;;;;;5112084;28;19964;-61
2023/05/29 06:57:24;;;;;;;;;;;;;;;;;;5094333;28;19916;-60
2023/05/29 06:59:50;;;;;;;;;;;;;;;;;;5111872;28;19923;-60
2023/05/29 07:05:18;;;;;;;;;;;;;;;;;;5093840;28;20034;-61
2023/05/29 07:07:44;;;;;;;;;;;;;;;;;;5076899;28;20014;-60
2023/05/29 07:10:10;;;;;;;;;;;;;;;;;;5077364;28;19920;-61
2023/05/29 07:12:36;;;;;;;;;;;;;;;;;;5094057;28;19915;-60
2023/05/29 07:15:02;;;;;;;;;;;;;;;;;;5093400;28;19941;-60
2023/05/29 07:17:29;;;;;;;;;;;;;;;;;;5093546;28;20395;-60
2023/05/29 07:20:07;;;;;;;;;;;;;;;;;;5092854;28;19916;-61
2023/05/29 07:22:33;;;;;;;;;;;;;;;;;;5094408;28;19941;-60
2023/05/29 07:24:58;;;;;;;;;;;;;;;;;;5094040;28;19916;-61
2023/05/29 07:27:24;;;;;;;;;;;;;;;;;;5093561;28;19922;-61
2023/05/29 07:29:49;;;;;;;;;;;;;;;;;;5075877;28;19923;-61
2023/05/29 07:32:14;;;;;;;;;;;;;;;;;;5093351;28;19923;-61
2023/05/29 07:34:40;;;;;;;;;;;;;;;;;;5093311;28;19926;-61
2023/05/29 07:37:05;;;;;;;;;;;;;;;;;;5092863;28;19912;-61
2023/05/29 07:39:32;;;;;;;;;;;;;;;;;;5091166;28;19932;-62
2023/05/29 07:42:03;;;;;;;;;;;;;;;;;;5092126;28;19915;-63
2023/05/29 07:44:29;;;;;;;;;;;;;;;;;;5092011;28;19924;-61
2023/05/29 07:46:55;;;;;;;;;;;;;;;;;;5093343;28;20399;-62
2023/05/29 07:49:46;;;;;;;;;;;;;;;;;;5106361;28;19935;-62
2023/05/29 07:52:12;;;;;;;;;;;;;;;;;;5093587;28;19916;-60
2023/05/29 07:54:37;;;;;;;;;;;;;;;;;;5076399;28;19997;-61
2023/05/29 07:57:09;;;;;;;;;;;;;;;;;;5092859;28;19962;-62
2023/05/29 07:59:35;;;;;;;;;;;;;;;;;;5076840;28;20308;-61
2023/05/29 08:02:02;;;;;;;;;;;;;;;;;;5093189;28;19916;-62
2023/05/29 08:04:42;;;;;;;;;;;;;;;;;;5091431;28;19920;-62
2023/05/29 08:07:08;;;;;;;;;;;;;;;;;;5092851;28;19922;-62
2023/05/29 08:09:34;;;;;;;;;;;;;;;;;;5084323;28;19966;-59
2023/05/29 08:12:00;;;;;;;;;;;;;;;;;;5073385;28;19951;-61
2023/05/29 08:14:26;;;;;;;;;;;;;;;;;;5074458;28;20373;-62
2023/05/29 08:16:52;;;;;;;;;;;;;;;;;;5072148;28;19922;-62
2023/05/29 08:19:17;;;;;;;;;;;;;;;;;;5090239;28;20214;-61
2023/05/29 08:21:42;;;;;;;;;;;;;;;;;;5089536;28;19916;-60
2023/05/29 08:24:08;;;;;;;;;;;;;;;;;;5090723;28;19920;-59
2023/05/29 08:26:33;;;;;;;;;;;;;;;;;;5094173;28;19916;-61
2023/05/29 08:28:59;;;;;;;;;;;;;;;;;;5098439;28;20011;-61
2023/05/29 08:31:25;;;;;;;;;;;;;;;;;;5109339;28;20333;-60
2023/05/29 08:33:50;;;;;;;;;;;;;;;;;;5092253;28;19924;-61
2023/05/29 08:36:16;;;;;;;;;;;;;;;;;;5111240;28;20060;-61
2023/05/29 08:38:41;;;;;;;;;;;;;;;;;;5111330;28;19927;-62
2023/05/29 08:41:06;;;;;;;;;;;;;;;;;;5110848;28;19924;-61
2023/05/29 08:43:32;;;;;;;;;;;;;;;;;;5111812;28;19920;-62
2023/05/29 08:45:57;;;;;;;;;;;;;;;;;;5093334;28;19916;-62
2023/05/29 08:48:22;;;;;;;;;;;;;;;;;;5111547;28;19920;-61
2023/05/29 08:50:48;;;;;;;;;;;;;;;;;;5111334;28;19924;-62
2023/05/29 08:53:13;;;;;;;;;;;;;;;;;;5111301;28;19920;-62
2023/05/29 08:55:38;;;;;;;;;;;;;;;;;;5110652;28;19919;-63
2023/05/29 08:58:04;;;;;;;;;;;;;;;;;;5091914;28;20377;-62
2023/05/29 09:00:29;;;;;;;;;;;;;;;;;;5109724;28;20007;-61
2023/05/29 09:02:59;;;;;;;;;;;;;;;;;;5110130;28;19941;-61
2023/05/29 09:05:27;;;;;;;;;;;;;;;;;;5110599;28;20327;-62
2023/05/29 09:07:52;;;;;;;;;;;;;;;;;;5092051;28;19972;-62
2023/05/29 09:10:18;;;;;;;;;;;;;;;;;;5091293;28;20366;-62
2023/05/29 09:12:44;;;;;;;;;;;;;;;;;;5110869;28;19955;-62
2023/05/29 09:15:11;;;;;;;;;;;;;;;;;;5109805;28;20364;-62
2023/05/29 09:17:36;;;;;;;;;;;;;;;;;;5109787;28;20014;-61
2023/05/29 09:20:04;;;;;;;;;;;;;;;;;;5110673;28;19962;-62
2023/05/29 09:22:30;;;;;;;;;;;;;;;;;;5110302;28;19923;-63
2023/05/29 09:24:56;;;;;;;;;;;;;;;;;;5110118;28;20300;-62
2023/05/29 09:27:21;;;;;;;;;;;;;;;;;;5110564;28;19923;-64
2023/05/29 09:32:49;;;;;;;;;;;;;;;;;;5110648;28;19927;-62
2023/05/29 09:35:15;;;;;;;;;;;;;;;;;;5110996;28;19915;-62
2023/05/29 09:37:40;;;;;;;;;;;;;;;;;;5092945;28;19959;-62
2023/05/29 09:40:05;;;;;;;;;;;;;;;;;;5111050;28;19930;-61
2023/05/29 09:42:31;;;;;;;;;;;;;;;;;;5092289;28;20289;-63
2023/05/29 09:44:56;;;;;;;;;;;;;;;;;;5113312;28;20287;-61
2023/05/29 09:47:22;;;;;;;;;;;;;;;;;;5112605;28;19919;-65
2023/05/29 09:49:47;;;;;;;;;;;;;;;;;;5113358;28;19924;-64
2023/05/29 09:52:15;;;;;;;;;;;;;;;;;;5114597;28;19915;-62
2023/05/29 09:54:41;;;;;;;;;;;;;;;;;;5113439;28;19919;-64
2023/05/29 09:57:06;;;;;;;;;;;;;;;;;;5112979;28;19916;-63
2023/05/29 09:59:31;;;;;;;;;;;;;;;;;;5103490;28;19920;-62
2023/05/29 10:01:57;;;;;;;;;;;;;;;;;;5093536;28;20035;-62
2023/05/29 10:04:24;;;;;;;;;;;;;;;;;;5074190;28;20305;-61
2023/05/29 10:06:49;;;;;;;;;;;;;;;;;;5074594;28;19912;-63
2023/05/29 10:09:15;;;;;;;;;;;;;;;;;;5076293;28;19920;-61
2023/05/29 10:11:40;;;;;;;;;;;;;;;;;;5058653;28;19938;-63
2023/05/29 10:14:06;;;;;;;;;;;;;;;;;;5093478;28;19916;-63
2023/05/29 10:16:35;;;;;;;;;;;;;;;;;;5093021;28;20306;-63
2023/05/29 10:19:01;;;;;;;;;;;;;;;;;;5073267;28;19927;-64
2023/05/29 10:21:26;;;;;;;;;;;;;;;;;;5093574;28;19916;-63
2023/05/29 10:23:52;;;;;;;;;;;;;;;;;;5101497;28;20022;-63
2023/05/29 10:26:18;;;;;;;;;;;;;;;;;;5108856;28;19916;-63
2023/05/29 10:28:43;;;;;;;;;;;;;;;;;;5091258;28;20455;-62
2023/05/29 10:31:09;;;;;;;;;;;;;;;;;;5093055;28;19924;-62
2023/05/29 10:33:34;;;;;;;;;;;;;;;;;;5095399;28;19920;-63
2023/05/29 10:35:59;;;;;;;;;;;;;;;;;;5097338;28;20583;-63
2023/05/29 10:38:24;;;;;;;;;;;;;;;;;;5097796;28;19973;-62
2023/05/29 10:40:50;;;;;;;;;;;;;;;;;;5075773;28;19924;-64
2023/05/29 10:43:15;;;;;;;;;;;;;;;;;;5081079;28;19927;-64
2023/05/29 10:45:40;;;;;;;;;;;;;;;;;;5091667;28;19916;-62
2023/05/29 10:48:06;;;;;;;;;;;;;;;;;;5091987;28;19978;-62
2023/05/29 10:50:31;;;;;;;;;;;;;;;;;;5098794;28;20511;-63
2023/05/29 10:52:56;;;;;;;;;;;;;;;;;;5097124;28;20261;-62
2023/05/29 10:55:21;;;;;;;;;;;;;;;;;;5110802;28;19916;-63
2023/05/29 10:57:47;;;;;;;;;;;;;;;;;;5112125;28;19927;-62
2023/05/29 11:00:14;;;;;;;;;;;;;;;;;;5093665;28;19984;-62
2023/05/29 11:02:39;;;;;;;;;;;;;;;;;;5112937;28;19924;-62
2023/05/29 11:05:05;;;;;;;;;;;;;;;;;;5093834;28;19923;-65
2023/05/29 11:07:30;;;;;;;;;;;;;;;;;;5099772;28;19916;-63
2023/05/29 11:09:55;;;;;;;;;;;;;;;;;;5110419;27;20178;-62
2023/05/29 11:12:33;;;;;;;;;;;;;;;;;;5091484;28;19930;-65
2023/05/29 11:14:58;;;;;;;;;;;;;;;;;;5115604;27;19915;-63
2023/05/29 11:17:24;;;;;;;;;;;;;;;;;;5098191;27;19916;-61
2023/05/29 11:19:49;;;;;;;;;;;;;;;;;;5127813;27;19922;-64
2023/05/29 11:22:15;;;;;;;;;;;;;;;;;;5108796;27;20315;-63
2023/05/29 11:24:40;;;;;;;;;;;;;;;;;;5090135;28;19920;-65
2023/05/29 11:27:07;;;;;;;;;;;;;;;;;;5105998;28;19922;-63
2023/05/29 11:29:33;;;;;;;;;;;;;;;;;;5074053;28;19952;-63
2023/05/29 11:31:58;;;;;;;;;;;;;;;;;;5090575;28;19963;-65
2023/05/29 11:34:23;;;;;;;;;;;;;;;;;;5072010;28;20015;-64
2023/05/29 11:36:49;;;;;;;;;;;;;;;;;;5054980;28;19923;-64
2023/05/29 11:39:14;;;;;;;;;;;;;;;;;;5091805;28;20278;-64
2023/05/29 11:41:39;;;;;;;;;;;;;;;;;;5099381;28;19939;-64
2023/05/29 11:44:08;;;;;;;;;;;;;;;;;;5106107;28;19926;-64
2023/05/29 11:46:34;;;;;;;;;;;;;;;;;;5092499;28;19937;-65
2023/05/29 11:48:59;;;;;;;;;;;;;;;;;;5109765;27;20463;-64
2023/05/29 11:51:24;;;;;;;;;;;;;;;;;;5105948;28;20010;-64
2023/05/29 11:53:52;;;;;;;;;;;;;;;;;;5099313;28;19920;-63
2023/05/29 11:56:18;;;;;;;;;;;;;;;;;;5104291;28;19938;-63
2023/05/29 11:58:43;;;;;;;;;;;;;;;;;;5081426;28;20444;-62
2023/05/29 12:01:08;;;;;;;;;;;;;;;;;;5109499;28;19915;-63
2023/05/29 12:03:34;;;;;;;;;;;;;;;;;;5084399;28;19920;-63
2023/05/29 12:05:59;;;;;;;;;;;;;;;;;;5077095;28;20557;-65
2023/05/29 12:08:24;;;;;;;;;;;;;;;;;;5117965;27;20014;-65
2023/05/29 12:10:50;;;;;;;;;;;;;;;;;;5113558;27;19930;-64
2023/05/29 12:13:18;;;;;;;;;;;;;;;;;;5126836;27;19942;-63
2023/05/29 12:15:44;;;;;;;;;;;;;;;;;;5116444;27;19968;-63
2023/05/29 12:18:09;;;;;;;;;;;;;;;;;;5093002;28;20017;-64
2023/05/29 12:20:34;;;;;;;;;;;;;;;;;;5111006;28;19915;-63
2023/05/29 12:23:00;;;;;;;;;;;;;;;;;;5093479;28;20026;-65
2023/05/29 12:25:25;;;;;;;;;;;;;;;;;;5078901;28;19970;-63
2023/05/29 12:27:50;;;;;;;;;;;;;;;;;;5110906;28;19924;-63
2023/05/29 12:30:16;;;;;;;;;;;;;;;;;;5105515;28;19957;-62
2023/05/29 12:32:41;;;;;;;;;;;;;;;;;;5095257;28;19959;-64
2023/05/29 12:35:06;;;;;;;;;;;;;;;;;;5097576;28;20439;-63
2023/05/29 12:37:33;;;;;;;;;;;;;;;;;;5106175;28;19918;-63
2023/05/29 12:39:58;;;;;;;;;;;;;;;;;;5105032;28;19927;-64
2023/05/29 12:42:23;;;;;;;;;;;;;;;;;;5099597;28;19923;-63
2023/05/29 12:44:49;;;;;;;;;;;;;;;;;;5089487;28;19916;-63
2023/05/29 12:47:16;;;;;;;;;;;;;;;;;;5110830;28;19915;-62
2023/05/29 12:49:41;;;;;;;;;;;;;;;;;;5103620;28;19932;-63
2023/05/29 12:52:07;;;;;;;;;;;;;;;;;;5090022;28;20027;-63
2023/05/29 12:54:32;;;;;;;;;;;;;;;;;;5075633;28;19920;-62
2023/05/29 12:57:00;;;;;;;;;;;;;;;;;;5086342;28;20014;-63
2023/05/29 12:59:26;;;;;;;;;;;;;;;;;;5099837;28;19926;-61
2023/05/29 13:01:52;;;;;;;;;;;;;;;;;;5097896;28;19920;-62
2023/05/29 13:04:17;;;;;;;;;;;;;;;;;;5098671;28;19920;-61
2023/05/29 13:06:42;;;;;;;;;;;;;;;;;;5097777;28;19942;-61
2023/05/29 13:09:08;;;;;;;;;;;;;;;;;;5098495;28;19926;-61
2023/05/29 13:11:33;;;;;;;;;;;;;;;;;;5100554;28;19924;-62
2023/05/29 13:13:59;;;;;;;;;;;;;;;;;;5097327;28;20007;-61
2023/05/29 13:16:24;;;;;;;;;;;;;;;;;;5098410;28;19915;-62
2023/05/29 13:18:49;;;;;;;;;;;;;;;;;;5098569;28;20260;-61
2023/05/29 13:21:15;;;;;;;;;;;;;;;;;;5102133;28;19963;-60
2023/05/29 13:23:40;;;;;;;;;;;;;;;;;;5103626;28;19980;-61
2023/05/29 13:26:05;;;;;;;;;;;;;;;;;;5106468;28;19947;-62
2023/05/29 13:28:31;;;;;;;;;;;;;;;;;;5076686;28;20035;-63
2023/05/29 13:30:57;;;;;;;;;;;;;;;;;;5101172;28;20022;-61
2023/05/29 13:33:22;;;;;;;;;;;;;;;;;;5112534;28;19923;-61
2023/05/29 13:35:47;;;;;;;;;;;;;;;;;;5093534;28;19958;-60
2023/05/29 13:38:13;;;;;;;;;;;;;;;;;;5114622;28;20326;-62
2023/05/29 13:40:39;;;;;;;;;;;;;;;;;;5094700;28;19931;-64
2023/05/29 13:43:04;;;;;;;;;;;;;;;;;;5105383;28;19920;-63
2023/05/29 13:45:30;;;;;;;;;;;;;;;;;;5091441;28;20049;-62
2023/05/29 13:47:55;;;;;;;;;;;;;;;;;;5094131;28;19968;-63
2023/05/29 13:50:22;;;;;;;;;;;;;;;;;;5096899;28;20026;-63
2023/05/29 13:52:47;;;;;;;;;;;;;;;;;;5098421;28;19924;-62
2023/05/29 13:55:12;;;;;;;;;;;;;;;;;;5106317;28;20080;-62
2023/05/29 13:57:37;;;;;;;;;;;;;;;;;;5102473;28;19916;-63
2023/05/29 14:00:03;;;;;;;;;;;;;;;;;;5105600;28;20388;-62
2023/05/29 14:02:31;;;;;;;;;;;;;;;;;;5082982;28;20013;-62
2023/05/29 14:04:56;;;;;;;;;;;;;;;;;;5106250;27;19988;-63
2023/05/29 14:07:22;;;;;;;;;;;;;;;;;;5063881;28;19985;-65
2023/05/29 14:09:47;;;;;;;;;;;;;;;;;;5098456;28;20416;-64
2023/05/29 14:12:12;;;;;;;;;;;;;;;;;;5097693;28;20080;-64
2023/05/29 14:14:38;;;;;;;;;;;;;;;;;;5116465;27;19926;-64
2023/05/29 14:17:04;;;;;;;;;;;;;;;;;;5131823;27;19915;-64
2023/05/29 14:19:30;;;;;;;;;;;;;;;;;;5113956;27;20399;-65
2023/05/29 14:21:55;;;;;;;;;;;;;;;;;;5133146;27;19916;-65
2023/05/29 14:24:20;;;;;;;;;;;;;;;;;;5112629;27;20388;-65
2023/05/29 14:26:46;;;;;;;;;;;;;;;;;;5092754;28;19942;-63
2023/05/29 14:29:12;;;;;;;;;;;;;;;;;;5096128;28;19927;-63
2023/05/29 14:31:38;;;;;;;;;;;;;;;;;;5112358;28;19997;-63
2023/05/29 14:34:03;;;;;;;;;;;;;;;;;;5093065;28;19958;-63
2023/05/29 14:36:28;;;;;;;;;;;;;;;;;;5093381;28;19911;-63
2023/05/29 14:38:53;;;;;;;;;;;;;;;;;;5092977;28;20441;-64
2023/05/29 14:41:19;;;;;;;;;;;;;;;;;;5106367;28;19931;-63
2023/05/29 14:43:44;;;;;;;;;;;;;;;;;;5071803;28;19920;-64
2023/05/29 14:46:10;;;;;;;;;;;;;;;;;;5082628;28;20266;-64
2023/05/29 14:48:35;;;;;;;;;;;;;;;;;;5094882;28;20010;-63
2023/05/29 14:51:00;;;;;;;;;;;;;;;;;;5111693;28;20409;-64
2023/05/29 14:53:26;;;;;;;;;;;;;;;;;;5103277;28;19925;-65
2023/05/29 14:55:55;;;;;;;;;;;;;;;;;;5090946;28;20360;-65
2023/05/29 14:58:21;;;;;;;;;;;;;;;;;;5080911;28;20403;-67
2023/05/29 15:00:46;;;;;;;;;;;;;;;;;;5083028;28;19916;-66
2023/05/29 15:03:11;;;;;;;;;;;;;;;;;;5074073;28;20346;-66
2023/05/29 15:05:37;;;;;;;;;;;;;;;;;;5078239;28;19916;-64
2023/05/29 15:08:02;;;;;;;;;;;;;;;;;;5098417;28;19926;-64
2023/05/29 15:10:27;;;;;;;;;;;;;;;;;;5101434;28;20010;-65
2023/05/29 15:12:56;;;;;;;;;;;;;;;;;;5078278;28;19943;-65
2023/05/29 15:15:21;;;;;;;;;;;;;;;;;;5075538;28;19927;-65
2023/05/29 15:17:50;;;;;;;;;;;;;;;;;;5098662;28;19920;-65
2023/05/29 15:20:17;;;;;;;;;;;;;;;;;;5069503;28;20452;-64
2023/05/29 15:22:42;;;;;;;;;;;;;;;;;;5072803;28;20300;-66
2023/05/29 15:25:08;;;;;;;;;;;;;;;;;;5097809;28;19916;-64
2023/05/29 15:27:33;;;;;;;;;;;;;;;;;;5101165;28;19923;-63
2023/05/29 15:30:01;;;;;;;;;;;;;;;;;;5082888;28;20664;-63
2023/05/29 15:32:26;;;;;;;;;;;;;;;;;;5077392;28;19942;-62
2023/05/29 15:34:52;;;;;;;;;;;;;;;;;;5098350;28;20381;-62
2023/05/29 15:37:17;;;;;;;;;;;;;;;;;;5106382;28;20292;-63
2023/05/29 15:39:45;;;;;;;;;;;;;;;;;;5069965;28;20201;-62
2023/05/29 15:42:12;;;;;;;;;;;;;;;;;;5096637;28;19976;-62
2023/05/29 15:44:37;;;;;;;;;;;;;;;;;;5098377;28;19941;-61
2023/05/29 15:47:02;;;;;;;;;;;;;;;;;;5097899;28;19920;-63
2023/05/29 15:49:28;;;;;;;;;;;;;;;;;;5099082;28;19923;-63
2023/05/29 15:51:54;;;;;;;;;;;;;;;;;;5098480;28;20378;-62
2023/05/29 15:54:19;;;;;;;;;;;;;;;;;;5082977;28;19915;-63
2023/05/29 15:56:44;;;;;;;;;;;;;;;;;;5096987;28;19934;-61
2023/05/29 15:59:09;;;;;;;;;;;;;;;;;;5095876;28;19983;-62
2023/05/29 16:01:35;;;;;;;;;;;;;;;;;;5081340;28;19973;-62
2023/05/29 16:04:00;;;;;;;;;;;;;;;;;;5097535;28;19916;-61
2023/05/29 16:06:26;;;;;;;;;;;;;;;;;;5099869;28;20018;-62
2023/05/29 16:08:51;;;;;;;;;;;;;;;;;;5080641;28;20018;-62
2023/05/29 16:11:16;;;;;;;;;;;;;;;;;;5091887;28;19950;-64
2023/05/29 16:13:41;;;;;;;;;;;;;;;;;;5081782;28;19920;-63
2023/05/29 16:16:07;;;;;;;;;;;;;;;;;;5103373;28;19926;-62
2023/05/29 16:18:32;;;;;;;;;;;;;;;;;;5080191;28;20363;-66
2023/05/29 16:20:57;;;;;;;;;;;;;;;;;;5072704;28;19934;-66
2023/05/29 16:23:23;;;;;;;;;;;;;;;;;;5081789;28;20265;-66
2023/05/29 16:25:51;;;;;;;;;;;;;;;;;;5095015;28;19927;-64
2023/05/29 16:28:16;;;;;;;;;;;;;;;;;;5100687;28;20010;-65
2023/05/29 16:30:41;;;;;;;;;;;;;;;;;;5098821;28;20349;-65
2023/05/29 16:33:06;;;;;;;;;;;;;;;;;;5111196;28;20020;-65
2023/05/29 16:35:32;;;;;;;;;;;;;;;;;;5109094;28;20402;-66
2023/05/29 16:37:57;;;;;;;;;;;;;;;;;;5092989;28;19916;-65
2023/05/29 16:40:23;;;;;;;;;;;;;;;;;;5082662;28;19928;-65
2023/05/29 16:42:48;;;;;;;;;;;;;;;;;;5076906;28;19923;-64
2023/05/29 16:45:13;;;;;;;;;;;;;;;;;;5083342;28;19920;-64
2023/05/29 16:47:39;;;;;;;;;;;;;;;;;;5089205;28;20296;-65
2023/05/29 16:50:04;;;;;;;;;;;;;;;;;;5089507;28;19932;-66